Flight Track Log - Related Links

Times and Time Zones

All times are in EDT time to prevent confusion due to time zone crossing. See the KAP927 flight status page for this flight to view local times or setup timezone preferences in your user account.

Time Position Orientation Groundspeed Altitude Reporting Facility
EDT Latitude Longitude Course Direction KTS MPH feet Rate Location/Type
Sat 02:28:59 PM 42.7150 -73.8303 215° Southwest 127 146 2,100  Level Boston Center
Sat 02:30:00 PM 42.7186 -73.8786 276° West 139 160 2,900 816 Climbing Boston Center
Sat 02:30:42 PM 42.7328 -73.9128 299° West 152 175 3,500 724 Climbing Boston Center
Sat 02:31:56 PM 42.7781 -73.9450 332° Northwest 153 176 4,300 672 Climbing Boston Center
Sat 02:32:56 PM 42.8111 -73.9742 327° Northwest 152 175 5,000 694 Climbing Boston Center
Sat 02:33:57 PM 42.8522 -74.0033 333° Northwest 152 175 5,700 724 Climbing Boston Center
Sat 02:34:52 PM 42.8875 -74.0269 334° Northwest 155 178 6,400 744 Climbing Boston Center
Sat 02:35:58 PM 42.9286 -74.0650 326° Northwest 150 173 7,200 614 Climbing Boston Center
Sat 02:36:59 PM 42.9658 -74.0914 333° Northwest 154 177 7,700 331 Climbing Boston Center
Sat 02:38:05 PM 43.0047 -74.1236 329° Northwest 165 190 7,900 94 Climbing Boston Center
Sat 02:39:06 PM 43.0481 -74.1589 329° Northwest 176 203 7,900  Level Boston Center
Sat 02:40:12 PM 43.0997 -74.1975 331° Northwest 174 200 7,900  Level Boston Center
Sat 02:41:06 PM 43.1389 -74.2242 334° Northwest 178 205 7,900 429 Level Boston Center
Sat 02:42:04 PM 43.1781 -74.2539 331° Northwest 175 201 8,700 736 Climbing Boston Center
Sat 02:42:52 PM 43.2047 -74.2744 331° Northwest 158 182 9,200 167 Climbing Boston Center
Sat 02:44:00 PM 43.2454 -74.3022 334° Northwest  Level FlightAware Approximate
Sat 02:49:50 PM 43.4842 -74.5006 330° Northwest 164 189 10,000  Level Boston Center
Sat 02:50:50 PM 43.5256 -74.5306 332° Northwest 164 189 10,000  Level Boston Center
Sat 02:51:00 PM 43.4896 -74.4922 330° Northwest  Level FlightAware Approximate
Sat 02:51:50 PM 43.5686 -74.5664 329° Northwest 164 189 10,000  Level Boston Center
Sat 02:52:00 PM 43.5243 -74.5197 330° Northwest  Level FlightAware Approximate
Sat 02:52:51 PM 43.6117 -74.5994 331° Northwest 164 189 10,000  Level Boston Center
Sat 02:53:00 PM 43.5591 -74.5473 330° Northwest  Level FlightAware Approximate
Sat 02:53:52 PM 43.6528 -74.6297 332° Northwest 164 189 10,000  Level Boston Center
Sat 02:54:00 PM 43.5938 -74.5749 330° Northwest  Level FlightAware Approximate
Sat 02:54:52 PM 43.6917 -74.6625 329° Northwest 164 189 10,100  Level Boston Center
Sat 02:55:00 PM 43.6286 -74.6025 330° Northwest  Level FlightAware Approximate
Sat 02:55:50 PM 43.7350 -74.6958 331° Northwest 164 189 10,100  Level Boston Center
Sat 02:56:50 PM 43.7758 -74.7289 330° Northwest 164 189 10,100  Level Boston Center
Sat 02:57:51 PM 43.8169 -74.7622 330° Northwest 164 189 10,100  Level Boston Center
Sat 02:58:51 PM 43.8600 -74.7956 331° Northwest 164 189 10,100 -50 Level Boston Center
Sat 02:59:51 PM 43.8989 -74.8286 329° Northwest 164 189 10,000 -50 Descending Boston Center
Sat 03:00:52 PM 43.9400 -74.8592 332° Northwest 164 189 10,000 -50 Level Boston Center
Sat 03:01:50 PM 43.9808 -74.8925 330° Northwest 164 189 9,900 -407 Descending Boston Center
Sat 03:02:50 PM 44.0261 -74.9292 330° Northwest 170 196 9,200 -694 Descending Boston Center
Sat 03:03:51 PM 44.0731 -74.9658 331° Northwest 181 208 8,500 -590 Descending Boston Center
Sat 03:04:52 PM 44.1222 -75.0083 328° Northwest 194 223 8,000 -496 Descending Boston Center
Sat 03:05:52 PM 44.1736 -75.0425 335° Northwest 200 230 7,500 -559 Descending Boston Center
Sat 03:06:50 PM 44.2206 -75.0822 329° Northwest 200 230 6,900 -605 Descending Boston Center
Sat 03:07:51 PM 44.2697 -75.1219 330° Northwest 200 230 6,300 -590 Descending Boston Center

Login

Don't have an account? Register now (free) for customized features, flight alerts, and more!